Memphis, Tennessee
Current Conditions -  °F | °C
As of 9:54 AM on Thursday 29 Jan 2015 (Local Time) from KMEM Reporting Station
Overcast Overcast  
Wind Chill: 59°   Ceiling: 25000
Heat Index: 59°   Visibility: 10mi
Dew Point: 45°   Wind: 8mph
Humidity: 60%   Direction: 240°WSW
Pressure: 30.1"   Gusts: 21mph
Location:  35.15°N, 90.05°W
Report Text: KMEM 291554Z 24007G18KT 10SM OVC250 15/07 A3010 RMK AO2 SLP192 T01500072 $
Loading
Personal Weather Stations






























Interactive Weather Map New forecast layout! Learn more

10-Day Weather Forecast

Advertisements
Track Severe Weather on mobile